sensor_id;sensor_type;location;lat;lon;timestamp;temperature;humidity
6008;DHT22;3032;49.484;11.112;2023-03-30T00:00:56;13.40;99.90
6008;DHT22;3032;49.484;11.112;2023-03-30T00:03:22;13.30;99.90
6008;DHT22;3032;49.484;11.112;2023-03-30T00:05:49;13.40;99.90
6008;DHT22;3032;49.484;11.112;2023-03-30T00:08:22;13.40;99.90
6008;DHT22;3032;49.484;11.112;2023-03-30T00:10:58;13.40;99.90
6008;DHT22;3032;49.484;11.112;2023-03-30T00:13:25;13.30;99.90
6008;DHT22;3032;49.484;11.112;2023-03-30T00:15:51;13.20;99.90
6008;DHT22;3032;49.484;11.112;2023-03-30T00:18:16;13.10;99.90
6008;DHT22;3032;49.484;11.112;2023-03-30T00:20:42;13.20;99.90
6008;DHT22;3032;49.484;11.112;2023-03-30T00:23:09;13.30;99.90
6008;DHT22;3032;49.484;11.112;2023-03-30T00:25:35;13.10;99.90
6008;DHT22;3032;49.484;11.112;2023-03-30T00:28:00;13.10;99.90
6008;DHT22;3032;49.484;11.112;2023-03-30T00:30:26;13.00;99.90
6008;DHT22;3032;49.484;11.112;2023-03-30T00:32:52;12.90;99.90
6008;DHT22;3032;49.484;11.112;2023-03-30T00:35:18;13.30;99.90
6008;DHT22;3032;49.484;11.112;2023-03-30T00:37:44;13.20;99.90
6008;DHT22;3032;49.484;11.112;2023-03-30T00:40:17;13.20;99.90
6008;DHT22;3032;49.484;11.112;2023-03-30T00:42:43;13.30;99.90
6008;DHT22;3032;49.484;11.112;2023-03-30T00:45:26;13.20;99.90
6008;DHT22;3032;49.484;11.112;2023-03-30T00:53:02;13.20;99.90
6008;DHT22;3032;49.484;11.112;2023-03-30T00:55:31;13.00;99.90
6008;DHT22;3032;49.484;11.112;2023-03-30T00:57:58;13.10;99.90
6008;DHT22;3032;49.484;11.112;2023-03-30T01:00:24;13.00;99.90
6008;DHT22;3032;49.484;11.112;2023-03-30T01:02:55;12.80;99.90
6008;DHT22;3032;49.484;11.112;2023-03-30T01:05:23;12.90;99.90
6008;DHT22;3032;49.484;11.112;2023-03-30T01:07:49;13.00;99.90
6008;DHT22;3032;49.484;11.112;2023-03-30T01:10:16;12.80;99.90
6008;DHT22;3032;49.484;11.112;2023-03-30T01:12:43;12.80;99.90
6008;DHT22;3032;49.484;11.112;2023-03-30T01:15:09;12.90;99.90
6008;DHT22;3032;49.484;11.112;2023-03-30T01:33:56;12.90;99.90
6008;DHT22;3032;49.484;11.112;2023-03-30T01:47:33;12.50;99.90
6008;DHT22;3032;49.484;11.112;2023-03-30T01:58:30;12.70;99.90
6008;DHT22;3032;49.484;11.112;2023-03-30T02:00:59;12.80;99.90
6008;DHT22;3032;49.484;11.112;2023-03-30T02:03:28;12.60;99.90
6008;DHT22;3032;49.484;11.112;2023-03-30T02:06:03;12.60;99.90
6008;DHT22;3032;49.484;11.112;2023-03-30T02:08:32;12.60;99.90
6008;DHT22;3032;49.484;11.112;2023-03-30T02:10:58;12.60;99.90
6008;DHT22;3032;49.484;11.112;2023-03-30T02:13:26;12.80;99.90
6008;DHT22;3032;49.484;11.112;2023-03-30T02:15:57;13.10;99.90
6008;DHT22;3032;49.484;11.112;2023-03-30T02:18:24;12.90;99.90
6008;DHT22;3032;49.484;11.112;2023-03-30T02:20:50;13.00;99.90
6008;DHT22;3032;49.484;11.112;2023-03-30T02:23:19;13.40;99.90
6008;DHT22;3032;49.484;11.112;2023-03-30T02:25:45;13.50;99.90
6008;DHT22;3032;49.484;11.112;2023-03-30T02:28:11;13.80;99.90
6008;DHT22;3032;49.484;11.112;2023-03-30T02:30:42;13.70;99.90
6008;DHT22;3032;49.484;11.112;2023-03-30T02:33:18;13.80;99.90
6008;DHT22;3032;49.484;11.112;2023-03-30T02:36:18;13.70;99.90
6008;DHT22;3032;49.484;11.112;2023-03-30T02:39:00;13.70;99.90
6008;DHT22;3032;49.484;11.112;2023-03-30T02:41:46;13.80;99.90
6008;DHT22;3032;49.484;11.112;2023-03-30T02:50:02;14.00;99.90
6008;DHT22;3032;49.484;11.112;2023-03-30T02:55:22;13.70;99.90
6008;DHT22;3032;49.484;11.112;2023-03-30T02:58:36;13.60;99.90
6008;DHT22;3032;49.484;11.112;2023-03-30T03:01:24;13.80;99.90
6008;DHT22;3032;49.484;11.112;2023-03-30T03:03:47;14.00;99.90
6008;DHT22;3032;49.484;11.112;2023-03-30T03:06:14;14.20;99.90
6008;DHT22;3032;49.484;11.112;2023-03-30T03:08:42;14.30;99.90
6008;DHT22;3032;49.484;11.112;2023-03-30T03:11:08;14.20;99.90
6008;DHT22;3032;49.484;11.112;2023-03-30T03:13:36;13.90;99.90
6008;DHT22;3032;49.484;11.112;2023-03-30T03:16:06;13.60;99.90
6008;DHT22;3032;49.484;11.112;2023-03-30T03:18:35;13.60;99.90
6008;DHT22;3032;49.484;11.112;2023-03-30T03:21:04;13.80;99.90
6008;DHT22;3032;49.484;11.112;2023-03-30T03:23:30;14.30;99.90
6008;DHT22;3032;49.484;11.112;2023-03-30T03:25:56;13.40;99.90
6008;DHT22;3032;49.484;11.112;2023-03-30T03:28:21;12.60;99.90
6008;DHT22;3032;49.484;11.112;2023-03-30T03:30:50;12.40;99.90
6008;DHT22;3032;49.484;11.112;2023-03-30T03:33:16;12.60;99.90
6008;DHT22;3032;49.484;11.112;2023-03-30T03:35:41;12.90;99.90
6008;DHT22;3032;49.484;11.112;2023-03-30T03:38:10;12.70;99.90
6008;DHT22;3032;49.484;11.112;2023-03-30T03:40:36;12.80;99.90
6008;DHT22;3032;49.484;11.112;2023-03-30T03:43:01;13.10;99.90
6008;DHT22;3032;49.484;11.112;2023-03-30T03:45:27;13.40;99.90
6008;DHT22;3032;49.484;11.112;2023-03-30T03:47:52;13.70;99.90
6008;DHT22;3032;49.484;11.112;2023-03-30T03:50:18;13.60;99.90
6008;DHT22;3032;49.484;11.112;2023-03-30T03:52:44;13.00;99.90
6008;DHT22;3032;49.484;11.112;2023-03-30T03:55:10;12.50;99.90
6008;DHT22;3032;49.484;11.112;2023-03-30T03:57:35;12.20;99.90
6008;DHT22;3032;49.484;11.112;2023-03-30T04:00:02;12.20;99.90
6008;DHT22;3032;49.484;11.112;2023-03-30T04:02:28;12.60;99.90
6008;DHT22;3032;49.484;11.112;2023-03-30T04:04:54;12.80;99.90
6008;DHT22;3032;49.484;11.112;2023-03-30T04:07:19;13.00;99.90
6008;DHT22;3032;49.484;11.112;2023-03-30T04:09:45;12.70;99.90
6008;DHT22;3032;49.484;11.112;2023-03-30T04:12:11;12.50;99.90
6008;DHT22;3032;49.484;11.112;2023-03-30T04:14:37;12.40;99.90
6008;DHT22;3032;49.484;11.112;2023-03-30T04:17:02;12.50;99.90
6008;DHT22;3032;49.484;11.112;2023-03-30T04:19:28;12.70;99.90
6008;DHT22;3032;49.484;11.112;2023-03-30T04:21:55;12.80;99.90
6008;DHT22;3032;49.484;11.112;2023-03-30T04:24:24;13.00;99.90
6008;DHT22;3032;49.484;11.112;2023-03-30T04:26:54;13.40;99.90
6008;DHT22;3032;49.484;11.112;2023-03-30T04:29:22;13.50;99.90
6008;DHT22;3032;49.484;11.112;2023-03-30T04:31:47;13.60;99.90
6008;DHT22;3032;49.484;11.112;2023-03-30T04:34:15;13.20;99.90
6008;DHT22;3032;49.484;11.112;2023-03-30T04:36:46;13.40;99.90
6008;DHT22;3032;49.484;11.112;2023-03-30T04:39:12;13.70;99.90
6008;DHT22;3032;49.484;11.112;2023-03-30T04:41:38;13.60;99.90
6008;DHT22;3032;49.484;11.112;2023-03-30T04:44:08;13.30;99.90
6008;DHT22;3032;49.484;11.112;2023-03-30T04:46:34;13.30;99.90
6008;DHT22;3032;49.484;11.112;2023-03-30T04:49:01;13.60;99.90
6008;DHT22;3032;49.484;11.112;2023-03-30T04:51:27;14.00;99.90
6008;DHT22;3032;49.484;11.112;2023-03-30T04:53:52;14.20;99.90
6008;DHT22;3032;49.484;11.112;2023-03-30T04:56:18;14.40;99.90
6008;DHT22;3032;49.484;11.112;2023-03-30T04:58:44;14.40;99.90
6008;DHT22;3032;49.484;11.112;2023-03-30T05:01:09;14.40;99.90
6008;DHT22;3032;49.484;11.112;2023-03-30T05:03:35;14.40;99.90
6008;DHT22;3032;49.484;11.112;2023-03-30T05:06:01;14.50;99.90
6008;DHT22;3032;49.484;11.112;2023-03-30T05:08:27;14.60;99.90
6008;DHT22;3032;49.484;11.112;2023-03-30T05:10:53;14.70;99.90
6008;DHT22;3032;49.484;11.112;2023-03-30T05:13:18;14.70;99.90
6008;DHT22;3032;49.484;11.112;2023-03-30T05:15:44;14.80;99.90
6008;DHT22;3032;49.484;11.112;2023-03-30T05:18:09;15.10;99.90
6008;DHT22;3032;49.484;11.112;2023-03-30T05:20:35;15.60;99.90
6008;DHT22;3032;49.484;11.112;2023-03-30T05:23:01;15.40;99.90
6008;DHT22;3032;49.484;11.112;2023-03-30T05:25:26;15.40;99.90
6008;DHT22;3032;49.484;11.112;2023-03-30T05:27:52;15.40;99.90
6008;DHT22;3032;49.484;11.112;2023-03-30T05:30:17;15.20;99.90
6008;DHT22;3032;49.484;11.112;2023-03-30T05:32:43;15.00;99.90
6008;DHT22;3032;49.484;11.112;2023-03-30T05:35:09;15.10;99.90
6008;DHT22;3032;49.484;11.112;2023-03-30T05:37:36;15.30;99.90
6008;DHT22;3032;49.484;11.112;2023-03-30T05:40:02;15.00;99.90
6008;DHT22;3032;49.484;11.112;2023-03-30T05:42:31;14.80;99.90
6008;DHT22;3032;49.484;11.112;2023-03-30T05:44:57;14.40;99.90
6008;DHT22;3032;49.484;11.112;2023-03-30T05:47:22;14.10;99.90
6008;DHT22;3032;49.484;11.112;2023-03-30T05:49:49;14.20;99.90
6008;DHT22;3032;49.484;11.112;2023-03-30T05:52:14;14.10;99.90
6008;DHT22;3032;49.484;11.112;2023-03-30T05:54:40;14.20;99.90
6008;DHT22;3032;49.484;11.112;2023-03-30T05:57:06;14.30;99.90
6008;DHT22;3032;49.484;11.112;2023-03-30T05:59:31;14.00;99.90
6008;DHT22;3032;49.484;11.112;2023-03-30T06:01:57;13.70;99.90
6008;DHT22;3032;49.484;11.112;2023-03-30T06:04:23;13.80;99.90
6008;DHT22;3032;49.484;11.112;2023-03-30T06:06:50;13.60;99.90
6008;DHT22;3032;49.484;11.112;2023-03-30T06:09:17;13.60;99.90
6008;DHT22;3032;49.484;11.112;2023-03-30T06:11:43;13.30;99.90
6008;DHT22;3032;49.484;11.112;2023-03-30T06:14:08;13.30;99.90
6008;DHT22;3032;49.484;11.112;2023-03-30T06:16:35;13.20;99.90
6008;DHT22;3032;49.484;11.112;2023-03-30T06:19:01;13.00;99.90
6008;DHT22;3032;49.484;11.112;2023-03-30T06:21:27;12.90;99.90
6008;DHT22;3032;49.484;11.112;2023-03-30T06:23:53;12.90;99.90
6008;DHT22;3032;49.484;11.112;2023-03-30T06:26:18;12.90;99.90
6008;DHT22;3032;49.484;11.112;2023-03-30T06:28:44;13.20;99.90
6008;DHT22;3032;49.484;11.112;2023-03-30T06:31:10;13.40;99.90
6008;DHT22;3032;49.484;11.112;2023-03-30T06:33:36;13.50;99.90
6008;DHT22;3032;49.484;11.112;2023-03-30T06:36:02;13.50;99.90
6008;DHT22;3032;49.484;11.112;2023-03-30T06:38:28;13.60;99.90
6008;DHT22;3032;49.484;11.112;2023-03-30T06:40:54;13.20;99.90
6008;DHT22;3032;49.484;11.112;2023-03-30T06:43:22;13.00;99.90
6008;DHT22;3032;49.484;11.112;2023-03-30T06:45:55;12.80;99.90
6008;DHT22;3032;49.484;11.112;2023-03-30T06:48:22;12.50;99.90
6008;DHT22;3032;49.484;11.112;2023-03-30T06:50:51;12.30;99.90
6008;DHT22;3032;49.484;11.112;2023-03-30T06:53:17;12.30;99.90
6008;DHT22;3032;49.484;11.112;2023-03-30T06:55:43;12.10;99.90
6008;DHT22;3032;49.484;11.112;2023-03-30T06:58:09;12.30;99.90
6008;DHT22;3032;49.484;11.112;2023-03-30T07:00:35;12.30;99.90
6008;DHT22;3032;49.484;11.112;2023-03-30T07:03:01;12.10;99.90
6008;DHT22;3032;49.484;11.112;2023-03-30T07:05:28;12.00;99.90
6008;DHT22;3032;49.484;11.112;2023-03-30T07:07:54;12.10;99.90
6008;DHT22;3032;49.484;11.112;2023-03-30T07:10:21;12.00;99.90
6008;DHT22;3032;49.484;11.112;2023-03-30T07:12:47;11.90;99.90
6008;DHT22;3032;49.484;11.112;2023-03-30T07:15:13;11.90;99.90
6008;DHT22;3032;49.484;11.112;2023-03-30T07:17:39;11.90;99.90
6008;DHT22;3032;49.484;11.112;2023-03-30T07:20:06;11.90;99.90
6008;DHT22;3032;49.484;11.112;2023-03-30T07:22:32;12.00;99.90
6008;DHT22;3032;49.484;11.112;2023-03-30T07:24:58;12.20;99.90
6008;DHT22;3032;49.484;11.112;2023-03-30T07:27:23;12.20;99.90
6008;DHT22;3032;49.484;11.112;2023-03-30T07:29:50;12.10;99.90
6008;DHT22;3032;49.484;11.112;2023-03-30T07:32:16;12.10;99.90
6008;DHT22;3032;49.484;11.112;2023-03-30T07:34:42;12.20;99.90
6008;DHT22;3032;49.484;11.112;2023-03-30T07:37:08;12.30;99.90
6008;DHT22;3032;49.484;11.112;2023-03-30T07:39:34;12.50;99.90
6008;DHT22;3032;49.484;11.112;2023-03-30T07:41:59;12.50;99.90
6008;DHT22;3032;49.484;11.112;2023-03-30T07:44:25;12.80;99.90
6008;DHT22;3032;49.484;11.112;2023-03-30T07:46:54;13.10;99.90
6008;DHT22;3032;49.484;11.112;2023-03-30T07:49:20;13.20;99.90
6008;DHT22;3032;49.484;11.112;2023-03-30T07:51:45;13.30;99.90
6008;DHT22;3032;49.484;11.112;2023-03-30T07:54:11;13.50;99.90
6008;DHT22;3032;49.484;11.112;2023-03-30T07:56:37;13.50;99.90
6008;DHT22;3032;49.484;11.112;2023-03-30T07:59:04;13.60;99.90
6008;DHT22;3032;49.484;11.112;2023-03-30T08:01:32;13.70;99.90
6008;DHT22;3032;49.484;11.112;2023-03-30T08:03:59;14.00;99.90
6008;DHT22;3032;49.484;11.112;2023-03-30T08:06:25;14.20;99.90
6008;DHT22;3032;49.484;11.112;2023-03-30T08:08:51;14.40;99.90
6008;DHT22;3032;49.484;11.112;2023-03-30T08:11:17;14.50;99.90
6008;DHT22;3032;49.484;11.112;2023-03-30T08:13:42;14.60;99.90
6008;DHT22;3032;49.484;11.112;2023-03-30T08:16:09;14.80;99.90
6008;DHT22;3032;49.484;11.112;2023-03-30T08:18:34;14.90;99.90
6008;DHT22;3032;49.484;11.112;2023-03-30T08:21:02;14.80;99.90
6008;DHT22;3032;49.484;11.112;2023-03-30T08:23:27;14.80;99.90
6008;DHT22;3032;49.484;11.112;2023-03-30T08:25:57;14.80;99.90
6008;DHT22;3032;49.484;11.112;2023-03-30T08:28:23;14.90;99.90
6008;DHT22;3032;49.484;11.112;2023-03-30T08:30:49;15.10;99.90
6008;DHT22;3032;49.484;11.112;2023-03-30T08:33:14;15.00;99.90
6008;DHT22;3032;49.484;11.112;2023-03-30T08:35:43;14.90;99.90
6008;DHT22;3032;49.484;11.112;2023-03-30T08:38:09;14.80;99.90
6008;DHT22;3032;49.484;11.112;2023-03-30T08:40:45;14.70;99.90
6008;DHT22;3032;49.484;11.112;2023-03-30T08:45:55;14.50;99.90
6008;DHT22;3032;49.484;11.112;2023-03-30T08:48:24;14.50;99.90
6008;DHT22;3032;49.484;11.112;2023-03-30T08:53:22;14.70;99.90
6008;DHT22;3032;49.484;11.112;2023-03-30T08:56:03;14.90;99.90
6008;DHT22;3032;49.484;11.112;2023-03-30T09:01:38;15.10;99.90
6008;DHT22;3032;49.484;11.112;2023-03-30T09:04:33;15.20;99.90
6008;DHT22;3032;49.484;11.112;2023-03-30T09:07:23;15.00;99.90
6008;DHT22;3032;49.484;11.112;2023-03-30T09:09:51;14.90;99.90
6008;DHT22;3032;49.484;11.112;2023-03-30T09:14:50;15.10;99.90
6008;DHT22;3032;49.484;11.112;2023-03-30T09:17:21;15.20;99.90
6008;DHT22;3032;49.484;11.112;2023-03-30T09:19:54;15.30;99.90
6008;DHT22;3032;49.484;11.112;2023-03-30T09:22:25;15.10;99.90
6008;DHT22;3032;49.484;11.112;2023-03-30T09:24:53;14.70;99.90
6008;DHT22;3032;49.484;11.112;2023-03-30T09:27:32;14.40;99.90
6008;DHT22;3032;49.484;11.112;2023-03-30T09:30:11;14.40;99.90
6008;DHT22;3032;49.484;11.112;2023-03-30T09:32:42;14.70;99.90
6008;DHT22;3032;49.484;11.112;2023-03-30T09:35:14;14.70;99.90
6008;DHT22;3032;49.484;11.112;2023-03-30T09:37:43;14.90;99.90
6008;DHT22;3032;49.484;11.112;2023-03-30T09:40:54;14.70;99.90
6008;DHT22;3032;49.484;11.112;2023-03-30T09:43:35;14.60;99.90
6008;DHT22;3032;49.484;11.112;2023-03-30T09:46:04;14.60;99.90
6008;DHT22;3032;49.484;11.112;2023-03-30T09:48:47;14.80;99.90
6008;DHT22;3032;49.484;11.112;2023-03-30T09:51:15;14.90;99.90
6008;DHT22;3032;49.484;11.112;2023-03-30T09:53:43;15.20;99.90
6008;DHT22;3032;49.484;11.112;2023-03-30T09:56:26;15.20;99.90
6008;DHT22;3032;49.484;11.112;2023-03-30T09:58:52;15.40;99.90
6008;DHT22;3032;49.484;11.112;2023-03-30T10:01:19;15.40;99.90
6008;DHT22;3032;49.484;11.112;2023-03-30T10:04:05;15.50;99.90
6008;DHT22;3032;49.484;11.112;2023-03-30T10:06:37;14.80;99.90
6008;DHT22;3032;49.484;11.112;2023-03-30T10:09:07;14.00;99.90
6008;DHT22;3032;49.484;11.112;2023-03-30T10:11:47;13.60;99.90
6008;DHT22;3032;49.484;11.112;2023-03-30T10:14:31;13.40;99.90
6008;DHT22;3032;49.484;11.112;2023-03-30T10:16:58;13.70;99.90
6008;DHT22;3032;49.484;11.112;2023-03-30T10:19:25;14.30;99.90
6008;DHT22;3032;49.484;11.112;2023-03-30T10:21:56;14.10;99.90
6008;DHT22;3032;49.484;11.112;2023-03-30T10:24:28;14.30;99.90
6008;DHT22;3032;49.484;11.112;2023-03-30T10:26:58;14.70;99.90
6008;DHT22;3032;49.484;11.112;2023-03-30T10:29:28;14.60;99.90
6008;DHT22;3032;49.484;11.112;2023-03-30T10:32:21;14.70;99.90
6008;DHT22;3032;49.484;11.112;2023-03-30T10:34:52;14.50;99.90
6008;DHT22;3032;49.484;11.112;2023-03-30T10:37:29;14.20;99.90
6008;DHT22;3032;49.484;11.112;2023-03-30T10:39:57;14.10;99.90
6008;DHT22;3032;49.484;11.112;2023-03-30T10:42:25;14.50;99.90
6008;DHT22;3032;49.484;11.112;2023-03-30T10:45:02;14.50;99.90
6008;DHT22;3032;49.484;11.112;2023-03-30T10:48:01;14.70;99.90
6008;DHT22;3032;49.484;11.112;2023-03-30T10:59:14;15.10;99.90
6008;DHT22;3032;49.484;11.112;2023-03-30T11:02:05;15.30;99.90
6008;DHT22;3032;49.484;11.112;2023-03-30T11:04:44;15.90;99.90
6008;DHT22;3032;49.484;11.112;2023-03-30T11:07:41;16.00;99.90
6008;DHT22;3032;49.484;11.112;2023-03-30T11:10:20;16.50;99.90
6008;DHT22;3032;49.484;11.112;2023-03-30T11:12:53;16.60;99.90
6008;DHT22;3032;49.484;11.112;2023-03-30T11:18:27;17.20;99.90
6008;DHT22;3032;49.484;11.112;2023-03-30T11:26:44;17.50;99.90
6008;DHT22;3032;49.484;11.112;2023-03-30T11:29:33;17.50;99.90
6008;DHT22;3032;49.484;11.112;2023-03-30T11:37:18;17.10;99.90
6008;DHT22;3032;49.484;11.112;2023-03-30T11:39:54;16.80;99.90
6008;DHT22;3032;49.484;11.112;2023-03-30T11:42:24;16.50;99.90
6008;DHT22;3032;49.484;11.112;2023-03-30T11:44:51;16.20;99.90
6008;DHT22;3032;49.484;11.112;2023-03-30T11:47:38;16.20;99.90
6008;DHT22;3032;49.484;11.112;2023-03-30T11:52:49;16.00;99.90
6008;DHT22;3032;49.484;11.112;2023-03-30T11:58:25;16.90;99.90
6008;DHT22;3032;49.484;11.112;2023-03-30T12:03:41;16.70;99.90
6008;DHT22;3032;49.484;11.112;2023-03-30T12:06:16;16.60;99.90
6008;DHT22;3032;49.484;11.112;2023-03-30T12:14:45;16.20;99.90
6008;DHT22;3032;49.484;11.112;2023-03-30T12:17:38;16.70;99.90
6008;DHT22;3032;49.484;11.112;2023-03-30T12:20:28;16.70;99.90
6008;DHT22;3032;49.484;11.112;2023-03-30T12:28:49;16.70;99.90
6008;DHT22;3032;49.484;11.112;2023-03-30T12:34:26;17.50;99.90
6008;DHT22;3032;49.484;11.112;2023-03-30T12:40:18;17.90;99.90
6008;DHT22;3032;49.484;11.112;2023-03-30T12:46:22;18.80;99.90
6008;DHT22;3032;49.484;11.112;2023-03-30T12:49:10;18.60;99.90
6008;DHT22;3032;49.484;11.112;2023-03-30T12:54:58;18.70;99.90
6008;DHT22;3032;49.484;11.112;2023-03-30T13:00:52;18.20;99.90
6008;DHT22;3032;49.484;11.112;2023-03-30T13:08:53;17.80;99.90
6008;DHT22;3032;49.484;11.112;2023-03-30T13:11:21;17.70;99.90
6008;DHT22;3032;49.484;11.112;2023-03-30T13:13:58;17.60;99.90
6008;DHT22;3032;49.484;11.112;2023-03-30T13:16:44;17.40;99.90
6008;DHT22;3032;49.484;11.112;2023-03-30T13:22:03;17.20;99.90
6008;DHT22;3032;49.484;11.112;2023-03-30T13:29:39;17.20;99.90
6008;DHT22;3032;49.484;11.112;2023-03-30T13:37:43;17.10;99.90
6008;DHT22;3032;49.484;11.112;2023-03-30T13:40:25;17.30;99.90
6008;DHT22;3032;49.484;11.112;2023-03-30T13:45:45;17.70;99.90
6008;DHT22;3032;49.484;11.112;2023-03-30T13:51:13;18.90;99.90
6008;DHT22;3032;49.484;11.112;2023-03-30T13:53:49;19.40;99.90
6008;DHT22;3032;49.484;11.112;2023-03-30T13:56:16;19.10;99.90
6008;DHT22;3032;49.484;11.112;2023-03-30T13:58:48;18.60;99.90
6008;DHT22;3032;49.484;11.112;2023-03-30T14:01:19;18.10;99.90
6008;DHT22;3032;49.484;11.112;2023-03-30T14:03:53;17.90;99.90
6008;DHT22;3032;49.484;11.112;2023-03-30T14:06:22;17.80;99.90
6008;DHT22;3032;49.484;11.112;2023-03-30T14:08:50;18.20;99.90
6008;DHT22;3032;49.484;11.112;2023-03-30T14:11:28;18.40;99.90
6008;DHT22;3032;49.484;11.112;2023-03-30T14:13:57;18.80;99.90
6008;DHT22;3032;49.484;11.112;2023-03-30T14:16:25;18.60;99.90
6008;DHT22;3032;49.484;11.112;2023-03-30T14:18:52;18.50;99.90
6008;DHT22;3032;49.484;11.112;2023-03-30T14:21:20;18.60;99.90
6008;DHT22;3032;49.484;11.112;2023-03-30T14:23:51;18.90;99.90
6008;DHT22;3032;49.484;11.112;2023-03-30T14:28:44;19.20;99.90
6008;DHT22;3032;49.484;11.112;2023-03-30T14:31:20;19.30;99.90
6008;DHT22;3032;49.484;11.112;2023-03-30T14:33:45;19.30;99.90
6008;DHT22;3032;49.484;11.112;2023-03-30T14:36:14;19.90;99.90
6008;DHT22;3032;49.484;11.112;2023-03-30T14:38:45;20.10;99.90
6008;DHT22;3032;49.484;11.112;2023-03-30T14:41:30;20.20;99.90
6008;DHT22;3032;49.484;11.112;2023-03-30T14:44:04;19.80;99.90
6008;DHT22;3032;49.484;11.112;2023-03-30T14:46:51;19.40;99.90
6008;DHT22;3032;49.484;11.112;2023-03-30T14:49:26;19.40;99.90
6008;DHT22;3032;49.484;11.112;2023-03-30T14:52:14;19.70;99.90
6008;DHT22;3032;49.484;11.112;2023-03-30T14:54:41;20.00;99.90
6008;DHT22;3032;49.484;11.112;2023-03-30T14:57:10;19.90;99.90
6008;DHT22;3032;49.484;11.112;2023-03-30T14:59:42;19.90;99.90
6008;DHT22;3032;49.484;11.112;2023-03-30T15:02:18;19.40;99.90
6008;DHT22;3032;49.484;11.112;2023-03-30T15:04:44;18.40;99.90
6008;DHT22;3032;49.484;11.112;2023-03-30T15:07:14;18.10;99.90
6008;DHT22;3032;49.484;11.112;2023-03-30T15:09:41;17.90;99.90
6008;DHT22;3032;49.484;11.112;2023-03-30T15:12:25;17.80;99.90
6008;DHT22;3032;49.484;11.112;2023-03-30T15:14:54;17.60;99.90
6008;DHT22;3032;49.484;11.112;2023-03-30T15:17:22;17.80;99.90
6008;DHT22;3032;49.484;11.112;2023-03-30T15:19:50;17.60;99.90
6008;DHT22;3032;49.484;11.112;2023-03-30T15:22:50;17.20;99.90
6008;DHT22;3032;49.484;11.112;2023-03-30T15:25:19;16.90;99.90
6008;DHT22;3032;49.484;11.112;2023-03-30T15:28:03;16.70;99.90
6008;DHT22;3032;49.484;11.112;2023-03-30T15:30:41;16.60;99.90
6008;DHT22;3032;49.484;11.112;2023-03-30T15:33:41;16.50;99.90
6008;DHT22;3032;49.484;11.112;2023-03-30T15:36:22;16.30;99.90
6008;DHT22;3032;49.484;11.112;2023-03-30T15:38:53;16.30;99.90
6008;DHT22;3032;49.484;11.112;2023-03-30T15:41:41;16.30;99.90
6008;DHT22;3032;49.484;11.112;2023-03-30T15:44:15;16.50;99.90
6008;DHT22;3032;49.484;11.112;2023-03-30T15:46:42;16.90;99.90
6008;DHT22;3032;49.484;11.112;2023-03-30T15:49:12;17.20;99.90
6008;DHT22;3032;49.484;11.112;2023-03-30T15:51:42;17.10;99.90
6008;DHT22;3032;49.484;11.112;2023-03-30T15:54:14;17.00;99.90
6008;DHT22;3032;49.484;11.112;2023-03-30T15:59:15;17.30;99.90
6008;DHT22;3032;49.484;11.112;2023-03-30T16:04:14;17.20;99.90
6008;DHT22;3032;49.484;11.112;2023-03-30T16:06:40;17.50;99.90
6008;DHT22;3032;49.484;11.112;2023-03-30T16:09:06;17.50;99.90
6008;DHT22;3032;49.484;11.112;2023-03-30T16:11:32;17.60;99.90
6008;DHT22;3032;49.484;11.112;2023-03-30T16:13:58;17.50;99.90
6008;DHT22;3032;49.484;11.112;2023-03-30T16:16:24;17.30;99.90
6008;DHT22;3032;49.484;11.112;2023-03-30T16:18:50;17.40;99.90
6008;DHT22;3032;49.484;11.112;2023-03-30T16:21:16;17.40;99.90
6008;DHT22;3032;49.484;11.112;2023-03-30T16:23:43;17.70;99.90
6008;DHT22;3032;49.484;11.112;2023-03-30T16:26:11;17.60;99.90
6008;DHT22;3032;49.484;11.112;2023-03-30T16:28:36;17.50;99.90
6008;DHT22;3032;49.484;11.112;2023-03-30T16:31:06;17.60;99.90
6008;DHT22;3032;49.484;11.112;2023-03-30T16:33:35;17.40;99.90
6008;DHT22;3032;49.484;11.112;2023-03-30T16:36:01;16.90;99.90
6008;DHT22;3032;49.484;11.112;2023-03-30T16:38:26;16.70;99.90
6008;DHT22;3032;49.484;11.112;2023-03-30T16:40:57;16.50;99.90
6008;DHT22;3032;49.484;11.112;2023-03-30T16:43:23;16.40;99.90
6008;DHT22;3032;49.484;11.112;2023-03-30T16:45:50;16.30;99.90
6008;DHT22;3032;49.484;11.112;2023-03-30T16:48:16;16.30;99.90
6008;DHT22;3032;49.484;11.112;2023-03-30T16:50:44;16.20;99.90
6008;DHT22;3032;49.484;11.112;2023-03-30T16:53:10;16.10;99.90
6008;DHT22;3032;49.484;11.112;2023-03-30T16:55:37;15.80;99.90
6008;DHT22;3032;49.484;11.112;2023-03-30T16:58:04;15.60;99.90
6008;DHT22;3032;49.484;11.112;2023-03-30T17:00:38;15.50;99.90
6008;DHT22;3032;49.484;11.112;2023-03-30T17:03:05;15.40;99.90
6008;DHT22;3032;49.484;11.112;2023-03-30T17:05:31;15.30;99.90
6008;DHT22;3032;49.484;11.112;2023-03-30T17:08:02;15.30;99.90
6008;DHT22;3032;49.484;11.112;2023-03-30T17:10:31;15.50;99.90
6008;DHT22;3032;49.484;11.112;2023-03-30T17:12:58;15.40;99.90
6008;DHT22;3032;49.484;11.112;2023-03-30T17:15:25;15.40;99.90
6008;DHT22;3032;49.484;11.112;2023-03-30T17:17:51;15.30;99.90
6008;DHT22;3032;49.484;11.112;2023-03-30T17:20:37;15.20;99.90
6008;DHT22;3032;49.484;11.112;2023-03-30T17:23:03;15.10;99.90
6008;DHT22;3032;49.484;11.112;2023-03-30T17:25:29;15.10;99.90
6008;DHT22;3032;49.484;11.112;2023-03-30T17:27:56;15.20;99.90
6008;DHT22;3032;49.484;11.112;2023-03-30T17:30:27;15.40;99.90
6008;DHT22;3032;49.484;11.112;2023-03-30T17:32:53;15.60;99.90
6008;DHT22;3032;49.484;11.112;2023-03-30T17:35:23;15.60;99.90
6008;DHT22;3032;49.484;11.112;2023-03-30T17:37:49;15.50;99.90
6008;DHT22;3032;49.484;11.112;2023-03-30T17:40:24;15.10;99.90
6008;DHT22;3032;49.484;11.112;2023-03-30T17:42:50;15.20;99.90
6008;DHT22;3032;49.484;11.112;2023-03-30T17:45:18;15.60;99.90
6008;DHT22;3032;49.484;11.112;2023-03-30T17:47:44;15.00;99.90
6008;DHT22;3032;49.484;11.112;2023-03-30T17:50:25;14.90;99.90
6008;DHT22;3032;49.484;11.112;2023-03-30T17:52:52;14.90;99.90
6008;DHT22;3032;49.484;11.112;2023-03-30T17:55:19;15.00;99.90
6008;DHT22;3032;49.484;11.112;2023-03-30T17:57:46;15.00;99.90
6008;DHT22;3032;49.484;11.112;2023-03-30T18:00:16;14.90;99.90
6008;DHT22;3032;49.484;11.112;2023-03-30T18:02:42;14.90;99.90
6008;DHT22;3032;49.484;11.112;2023-03-30T18:05:08;14.70;99.90
6008;DHT22;3032;49.484;11.112;2023-03-30T18:07:34;14.70;99.90
6008;DHT22;3032;49.484;11.112;2023-03-30T18:10:00;14.80;99.90
6008;DHT22;3032;49.484;11.112;2023-03-30T18:12:25;14.80;99.90
6008;DHT22;3032;49.484;11.112;2023-03-30T18:14:51;14.80;99.90
6008;DHT22;3032;49.484;11.112;2023-03-30T18:17:16;14.80;99.90
6008;DHT22;3032;49.484;11.112;2023-03-30T18:19:43;14.30;99.90
6008;DHT22;3032;49.484;11.112;2023-03-30T18:22:09;14.10;99.90
6008;DHT22;3032;49.484;11.112;2023-03-30T18:24:34;13.80;99.90
6008;DHT22;3032;49.484;11.112;2023-03-30T18:27:00;13.80;99.90
6008;DHT22;3032;49.484;11.112;2023-03-30T18:29:26;13.80;99.90
6008;DHT22;3032;49.484;11.112;2023-03-30T18:31:53;13.50;99.90
6008;DHT22;3032;49.484;11.112;2023-03-30T18:34:19;12.90;99.90